sensor_id;sensor_type;location;lat;lon;timestamp;pressure;altitude;pressure_sealevel;temperature;humidity
70445;BME280;57902;49.638;11.070;2024-01-11T00:01:11;99341.59;;;-7.30;100.00
70445;BME280;57902;49.638;11.070;2024-01-11T00:03:38;99339.84;;;-7.31;100.00
70445;BME280;57902;49.638;11.070;2024-01-11T00:06:05;99344.16;;;-7.29;100.00
70445;BME280;57902;49.638;11.070;2024-01-11T00:08:32;99342.44;;;-7.30;100.00
70445;BME280;57902;49.638;11.070;2024-01-11T00:10:58;99341.31;;;-7.35;100.00
70445;BME280;57902;49.638;11.070;2024-01-11T00:13:25;99347.69;;;-7.40;100.00
70445;BME280;57902;49.638;11.070;2024-01-11T00:15:52;99351.56;;;-7.45;100.00
70445;BME280;57902;49.638;11.070;2024-01-11T00:18:19;99345.78;;;-7.44;100.00
70445;BME280;57902;49.638;11.070;2024-01-11T00:20:46;99347.81;;;-7.52;100.00
70445;BME280;57902;49.638;11.070;2024-01-11T00:23:12;99341.19;;;-7.51;100.00
70445;BME280;57902;49.638;11.070;2024-01-11T00:25:39;99340.50;;;-7.49;100.00
70445;BME280;57902;49.638;11.070;2024-01-11T00:28:05;99343.78;;;-7.50;100.00
70445;BME280;57902;49.638;11.070;2024-01-11T00:30:32;99341.38;;;-7.48;100.00
70445;BME280;57902;49.638;11.070;2024-01-11T00:32:58;99341.19;;;-7.51;100.00
70445;BME280;57902;49.638;11.070;2024-01-11T00:35:25;99344.66;;;-7.49;100.00
70445;BME280;57902;49.638;11.070;2024-01-11T00:37:52;99349.13;;;-7.59;100.00
70445;BME280;57902;49.638;11.070;2024-01-11T00:40:19;99351.63;;;-7.59;100.00
70445;BME280;57902;49.638;11.070;2024-01-11T00:42:45;99344.47;;;-7.52;100.00
70445;BME280;57902;49.638;11.070;2024-01-11T00:45:12;99352.25;;;-7.48;100.00
70445;BME280;57902;49.638;11.070;2024-01-11T00:47:38;99351.56;;;-7.45;100.00
70445;BME280;57902;49.638;11.070;2024-01-11T00:50:05;99354.41;;;-7.54;100.00
70445;BME280;57902;49.638;11.070;2024-01-11T00:52:32;99352.22;;;-7.63;100.00
70445;BME280;57902;49.638;11.070;2024-01-11T00:54:58;99348.41;;;-7.56;100.00
70445;BME280;57902;49.638;11.070;2024-01-11T00:57:25;99353.84;;;-7.63;100.00
70445;BME280;57902;49.638;11.070;2024-01-11T00:59:51;99348.09;;;-7.76;100.00
70445;BME280;57902;49.638;11.070;2024-01-11T01:02:20;99353.09;;;-7.76;100.00
70445;BME280;57902;49.638;11.070;2024-01-11T01:04:47;99361.59;;;-7.74;100.00
70445;BME280;57902;49.638;11.070;2024-01-11T01:07:13;99356.69;;;-7.72;100.00
70445;BME280;57902;49.638;11.070;2024-01-11T01:09:40;99360.25;;;-7.82;100.00
70445;BME280;57902;49.638;11.070;2024-01-11T01:12:06;99362.00;;;-7.81;100.00
70445;BME280;57902;49.638;11.070;2024-01-11T01:14:33;99356.09;;;-7.81;100.00
70445;BME280;57902;49.638;11.070;2024-01-11T01:16:59;99357.00;;;-7.81;100.00
70445;BME280;57902;49.638;11.070;2024-01-11T01:19:26;99351.09;;;-7.81;100.00
70445;BME280;57902;49.638;11.070;2024-01-11T01:21:53;99362.19;;;-7.78;100.00
70445;BME280;57902;49.638;11.070;2024-01-11T01:24:19;99361.38;;;-7.77;100.00
70445;BME280;57902;49.638;11.070;2024-01-11T01:26:46;99362.44;;;-7.73;100.00
70445;BME280;57902;49.638;11.070;2024-01-11T01:29:12;99365.53;;;-7.77;100.00
70445;BME280;57902;49.638;11.070;2024-01-11T01:31:39;99368.13;;;-7.76;100.00
70445;BME280;57902;49.638;11.070;2024-01-11T01:34:07;99366.28;;;-7.78;100.00
70445;BME280;57902;49.638;11.070;2024-01-11T01:36:33;99359.69;;;-7.78;100.00
70445;BME280;57902;49.638;11.070;2024-01-11T01:39:00;99356.09;;;-7.81;100.00
70445;BME280;57902;49.638;11.070;2024-01-11T01:41:26;99364.91;;;-7.88;100.00
70445;BME280;57902;49.638;11.070;2024-01-11T01:43:53;99358.81;;;-7.92;100.00
70445;BME280;57902;49.638;11.070;2024-01-11T01:46:23;99361.06;;;-7.96;100.00
70445;BME280;57902;49.638;11.070;2024-01-11T01:48:54;99369.81;;;-7.89;100.00
70445;BME280;57902;49.638;11.070;2024-01-11T01:51:22;99360.75;;;-7.87;100.00
70445;BME280;57902;49.638;11.070;2024-01-11T01:53:50;99367.50;;;-7.86;100.00
70445;BME280;57902;49.638;11.070;2024-01-11T01:56:18;99369.31;;;-7.84;100.00
70445;BME280;57902;49.638;11.070;2024-01-11T01:58:45;99364.00;;;-7.88;100.00
70445;BME280;57902;49.638;11.070;2024-01-11T02:01:13;99361.72;;;-7.99;100.00
70445;BME280;57902;49.638;11.070;2024-01-11T02:03:41;99346.53;;;-8.02;100.00
70445;BME280;57902;49.638;11.070;2024-01-11T02:06:08;99345.00;;;-8.00;100.00
70445;BME280;57902;49.638;11.070;2024-01-11T02:08:35;99346.81;;;-8.11;100.00
70445;BME280;57902;49.638;11.070;2024-01-11T02:11:03;99353.09;;;-8.04;100.00
70445;BME280;57902;49.638;11.070;2024-01-11T02:13:29;99353.84;;;-8.05;100.00
70445;BME280;57902;49.638;11.070;2024-01-11T02:15:56;99360.97;;;-7.98;100.00
70445;BME280;57902;49.638;11.070;2024-01-11T02:18:22;99353.63;;;-7.95;100.00
70445;BME280;57902;49.638;11.070;2024-01-11T02:20:49;99355.75;;;-7.87;100.00
70445;BME280;57902;49.638;11.070;2024-01-11T02:23:17;99358.72;;;-7.93;100.00
70445;BME280;57902;49.638;11.070;2024-01-11T02:25:46;99357.41;;;-8.01;100.00
70445;BME280;57902;49.638;11.070;2024-01-11T02:28:12;99359.91;;;-8.01;100.00
70445;BME280;57902;49.638;11.070;2024-01-11T02:30:39;99348.84;;;-8.05;100.00
70445;BME280;57902;49.638;11.070;2024-01-11T02:33:05;99350.66;;;-8.02;100.00
70445;BME280;57902;49.638;11.070;2024-01-11T02:35:33;99358.44;;;-7.98;100.00
70445;BME280;57902;49.638;11.070;2024-01-11T02:38:01;99360.78;;;-8.01;100.00
70445;BME280;57902;49.638;11.070;2024-01-11T02:40:29;99360.97;;;-8.11;100.00
70445;BME280;57902;49.638;11.070;2024-01-11T02:42:55;99357.63;;;-8.12;100.00
70445;BME280;57902;49.638;11.070;2024-01-11T02:45:22;99355.78;;;-8.14;100.00
70445;BME280;57902;49.638;11.070;2024-01-11T02:47:48;99348.69;;;-8.21;100.00
70445;BME280;57902;49.638;11.070;2024-01-11T02:50:15;99351.66;;;-8.27;100.00
70445;BME280;57902;49.638;11.070;2024-01-11T02:52:42;99352.22;;;-8.31;100.00
70445;BME280;57902;49.638;11.070;2024-01-11T02:55:08;99356.00;;;-8.38;100.00
70445;BME280;57902;49.638;11.070;2024-01-11T02:57:35;99359.44;;;-8.36;100.00
70445;BME280;57902;49.638;11.070;2024-01-11T03:00:02;99348.50;;;-8.38;100.00
70445;BME280;57902;49.638;11.070;2024-01-11T03:02:29;99343.16;;;-8.44;100.00
70445;BME280;57902;49.638;11.070;2024-01-11T03:04:55;99348.50;;;-8.38;100.00
70445;BME280;57902;49.638;11.070;2024-01-11T03:07:22;99350.44;;;-8.34;100.00
70445;BME280;57902;49.638;11.070;2024-01-11T03:09:48;99347.53;;;-8.40;100.00
70445;BME280;57902;49.638;11.070;2024-01-11T03:12:15;99342.53;;;-8.40;100.00
70445;BME280;57902;49.638;11.070;2024-01-11T03:14:41;99336.84;;;-8.37;100.00
70445;BME280;57902;49.638;11.070;2024-01-11T03:17:08;99342.13;;;-8.33;100.00
70445;BME280;57902;49.638;11.070;2024-01-11T03:19:41;99339.72;;;-8.31;100.00
70445;BME280;57902;49.638;11.070;2024-01-11T03:22:08;99343.91;;;-8.45;100.00
70445;BME280;57902;49.638;11.070;2024-01-11T03:24:37;99341.56;;;-8.42;100.00
70445;BME280;57902;49.638;11.070;2024-01-11T03:27:05;99338.53;;;-8.51;100.00
70445;BME280;57902;49.638;11.070;2024-01-11T03:29:34;99332.19;;;-8.46;100.00
70445;BME280;57902;49.638;11.070;2024-01-11T03:32:01;99328.44;;;-8.53;100.00
70445;BME280;57902;49.638;11.070;2024-01-11T03:34:28;99337.75;;;-8.50;100.00
70445;BME280;57902;49.638;11.070;2024-01-11T03:36:54;99336.22;;;-8.48;100.00
70445;BME280;57902;49.638;11.070;2024-01-11T03:39:21;99330.66;;;-8.44;100.00
70445;BME280;57902;49.638;11.070;2024-01-11T03:41:47;99325.06;;;-8.67;100.00
70445;BME280;57902;49.638;11.070;2024-01-11T03:44:14;99337.94;;;-8.60;100.00
70445;BME280;57902;49.638;11.070;2024-01-11T03:46:41;99345.72;;;-8.56;100.00
70445;BME280;57902;49.638;11.070;2024-01-11T03:49:07;99344.00;;;-8.57;100.00
70445;BME280;57902;49.638;11.070;2024-01-11T03:51:34;99339.50;;;-8.49;100.00
70445;BME280;57902;49.638;11.070;2024-01-11T03:54:01;99336.56;;;-8.42;100.00
70445;BME280;57902;49.638;11.070;2024-01-11T03:56:27;99337.75;;;-8.50;100.00
70445;BME280;57902;49.638;11.070;2024-01-11T03:58:54;99334.38;;;-8.51;100.00
70445;BME280;57902;49.638;11.070;2024-01-11T04:01:20;99340.06;;;-8.53;100.00
70445;BME280;57902;49.638;11.070;2024-01-11T04:03:47;99351.59;;;-8.55;100.00
70445;BME280;57902;49.638;11.070;2024-01-11T04:06:23;99342.94;;;-8.60;100.00
70445;BME280;57902;49.638;11.070;2024-01-11T04:08:50;99341.03;;;-8.65;100.00
70445;BME280;57902;49.638;11.070;2024-01-11T04:11:18;99332.94;;;-8.60;100.00
70445;BME280;57902;49.638;11.070;2024-01-11T04:13:44;99334.69;;;-8.59;100.00
70445;BME280;57902;49.638;11.070;2024-01-11T04:16:11;99348.13;;;-8.57;100.00
70445;BME280;57902;49.638;11.070;2024-01-11T04:18:38;99348.81;;;-8.60;100.00
70445;BME280;57902;49.638;11.070;2024-01-11T04:21:05;99351.69;;;-8.67;100.00
70445;BME280;57902;49.638;11.070;2024-01-11T04:23:31;99355.81;;;-8.68;100.00
70445;BME280;57902;49.638;11.070;2024-01-11T04:25:58;99348.53;;;-8.65;100.00
70445;BME280;57902;49.638;11.070;2024-01-11T04:28:25;99351.22;;;-8.62;100.00
70445;BME280;57902;49.638;11.070;2024-01-11T04:30:51;99360.63;;;-8.57;100.00
70445;BME280;57902;49.638;11.070;2024-01-11T04:33:18;99372.75;;;-8.50;100.00
70445;BME280;57902;49.638;11.070;2024-01-11T04:35:44;99370.53;;;-8.59;100.00
70445;BME280;57902;49.638;11.070;2024-01-11T04:38:11;99371.88;;;-8.64;100.00
70445;BME280;57902;49.638;11.070;2024-01-11T04:40:38;99365.44;;;-8.60;100.00
70445;BME280;57902;49.638;11.070;2024-01-11T04:43:05;99368.13;;;-8.57;100.00
70445;BME280;57902;49.638;11.070;2024-01-11T04:45:31;99360.63;;;-8.57;100.00
70445;BME280;57902;49.638;11.070;2024-01-11T04:47:58;99362.66;;;-8.65;100.00
70445;BME280;57902;49.638;11.070;2024-01-11T04:50:24;99368.63;;;-8.63;100.00
70445;BME280;57902;49.638;11.070;2024-01-11T04:52:51;99368.72;;;-8.62;100.00
70445;BME280;57902;49.638;11.070;2024-01-11T04:55:18;99357.75;;;-8.64;100.00
70445;BME280;57902;49.638;11.070;2024-01-11T04:57:44;99350.06;;;-8.67;100.00
70445;BME280;57902;49.638;11.070;2024-01-11T05:00:11;99357.47;;;-8.68;100.00
70445;BME280;57902;49.638;11.070;2024-01-11T05:02:38;99358.91;;;-8.72;100.00
70445;BME280;57902;49.638;11.070;2024-01-11T05:05:05;99355.44;;;-8.74;100.00
70445;BME280;57902;49.638;11.070;2024-01-11T05:07:31;99361.50;;;-8.70;100.00
70445;BME280;57902;49.638;11.070;2024-01-11T05:09:58;99363.41;;;-8.66;100.00
70445;BME280;57902;49.638;11.070;2024-01-11T05:12:25;99366.41;;;-8.58;100.00
70445;BME280;57902;49.638;11.070;2024-01-11T05:14:51;99362.09;;;-8.61;100.00
70445;BME280;57902;49.638;11.070;2024-01-11T05:17:18;99355.16;;;-8.65;100.00
70445;BME280;57902;49.638;11.070;2024-01-11T05:19:47;99362.19;;;-8.59;100.00
70445;BME280;57902;49.638;11.070;2024-01-11T05:22:14;99357.34;;;-8.70;100.00
70445;BME280;57902;49.638;11.070;2024-01-11T05:24:41;99353.59;;;-8.76;100.00
70445;BME280;57902;49.638;11.070;2024-01-11T05:27:07;99362.63;;;-8.78;100.00
70445;BME280;57902;49.638;11.070;2024-01-11T05:29:34;99352.06;;;-8.88;100.00
70445;BME280;57902;49.638;11.070;2024-01-11T05:32:00;99345.97;;;-8.91;100.00
70445;BME280;57902;49.638;11.070;2024-01-11T05:34:27;99343.88;;;-8.85;100.00
70445;BME280;57902;49.638;11.070;2024-01-11T05:36:54;99348.41;;;-8.80;100.00
70445;BME280;57902;49.638;11.070;2024-01-11T05:39:20;99354.38;;;-8.77;100.00
70445;BME280;57902;49.638;11.070;2024-01-11T05:41:47;99356.97;;;-8.76;100.00
70445;BME280;57902;49.638;11.070;2024-01-11T05:44:14;99373.13;;;-8.71;100.00
70445;BME280;57902;49.638;11.070;2024-01-11T05:46:40;99367.34;;;-8.83;100.00
70445;BME280;57902;49.638;11.070;2024-01-11T05:49:07;99374.19;;;-8.81;100.00
70445;BME280;57902;49.638;11.070;2024-01-11T05:51:34;99380.63;;;-8.71;100.00
70445;BME280;57902;49.638;11.070;2024-01-11T05:54:00;99390.72;;;-8.69;100.00
70445;BME280;57902;49.638;11.070;2024-01-11T05:56:27;99382.81;;;-8.75;100.00
70445;BME280;57902;49.638;11.070;2024-01-11T05:58:53;99373.72;;;-8.75;100.00
70445;BME280;57902;49.638;11.070;2024-01-11T06:01:20;99382.16;;;-8.73;100.00
70445;BME280;57902;49.638;11.070;2024-01-11T06:03:47;99386.22;;;-8.75;100.00
70445;BME280;57902;49.638;11.070;2024-01-11T06:06:14;99384.44;;;-8.89;100.00
70445;BME280;57902;49.638;11.070;2024-01-11T06:08:41;99379.75;;;-8.85;100.00
70445;BME280;57902;49.638;11.070;2024-01-11T06:11:10;99383.28;;;-8.81;100.00
70445;BME280;57902;49.638;11.070;2024-01-11T06:13:36;99387.34;;;-8.83;100.00
70445;BME280;57902;49.638;11.070;2024-01-11T06:16:03;99401.56;;;-8.82;100.00
70445;BME280;57902;49.638;11.070;2024-01-11T06:18:29;99402.72;;;-8.77;100.00
70445;BME280;57902;49.638;11.070;2024-01-11T06:20:57;99409.75;;;-8.71;100.00
70445;BME280;57902;49.638;11.070;2024-01-11T06:23:25;99407.16;;;-8.73;100.00
70445;BME280;57902;49.638;11.070;2024-01-11T06:25:51;99419.47;;;-8.76;100.00
70445;BME280;57902;49.638;11.070;2024-01-11T06:28:18;99429.25;;;-8.79;100.00
70445;BME280;57902;49.638;11.070;2024-01-11T06:30:44;99440.00;;;-8.80;100.00
70445;BME280;57902;49.638;11.070;2024-01-11T06:33:12;99435.41;;;-8.74;100.00
70445;BME280;57902;49.638;11.070;2024-01-11T06:35:38;99430.78;;;-8.81;100.00
70445;BME280;57902;49.638;11.070;2024-01-11T06:38:06;99431.91;;;-8.89;100.00
70445;BME280;57902;49.638;11.070;2024-01-11T06:40:34;99437.66;;;-8.90;100.00
70445;BME280;57902;49.638;11.070;2024-01-11T06:43:00;99436.91;;;-8.89;100.00
70445;BME280;57902;49.638;11.070;2024-01-11T06:45:27;99431.34;;;-8.85;100.00
70445;BME280;57902;49.638;11.070;2024-01-11T06:47:53;99429.63;;;-8.86;100.00
70445;BME280;57902;49.638;11.070;2024-01-11T06:50:20;99431.91;;;-8.89;100.00
70445;BME280;57902;49.638;11.070;2024-01-11T06:52:47;99435.28;;;-8.89;100.00
70445;BME280;57902;49.638;11.070;2024-01-11T06:55:13;99431.22;;;-8.87;100.00
70445;BME280;57902;49.638;11.070;2024-01-11T06:57:40;99429.31;;;-8.91;100.00
70445;BME280;57902;49.638;11.070;2024-01-11T07:00:07;99429.63;;;-8.86;100.00
70445;BME280;57902;49.638;11.070;2024-01-11T07:02:34;99434.06;;;-8.82;100.00
70445;BME280;57902;49.638;11.070;2024-01-11T07:05:01;99438.06;;;-8.84;100.00
70445;BME280;57902;49.638;11.070;2024-01-11T07:07:28;99438.47;;;-8.78;100.00
70445;BME280;57902;49.638;11.070;2024-01-11T07:09:55;99432.16;;;-8.73;100.00
70445;BME280;57902;49.638;11.070;2024-01-11T07:12:22;99440.88;;;-8.80;100.00
70445;BME280;57902;49.638;11.070;2024-01-11T07:14:48;99440.22;;;-8.77;100.00
70445;BME280;57902;49.638;11.070;2024-01-11T07:17:15;99433.28;;;-8.81;100.00
70445;BME280;57902;49.638;11.070;2024-01-11T07:19:42;99436.56;;;-8.82;100.00
70445;BME280;57902;49.638;11.070;2024-01-11T07:22:08;99435.28;;;-8.89;100.00
70445;BME280;57902;49.638;11.070;2024-01-11T07:24:35;99438.44;;;-8.91;100.00
70445;BME280;57902;49.638;11.070;2024-01-11T07:27:05;99447.66;;;-8.90;100.00
70445;BME280;57902;49.638;11.070;2024-01-11T07:29:33;99451.56;;;-8.82;100.00
70445;BME280;57902;49.638;11.070;2024-01-11T07:32:00;99458.69;;;-8.75;100.00
70445;BME280;57902;49.638;11.070;2024-01-11T07:34:27;99470.34;;;-8.87;100.00
70445;BME280;57902;49.638;11.070;2024-01-11T07:36:54;99476.53;;;-8.82;100.00
70445;BME280;57902;49.638;11.070;2024-01-11T07:39:21;99465.31;;;-8.75;100.00
70445;BME280;57902;49.638;11.070;2024-01-11T07:41:49;99476.59;;;-8.69;100.00
70445;BME280;57902;49.638;11.070;2024-01-11T07:44:15;99468.91;;;-8.58;100.00
70445;BME280;57902;49.638;11.070;2024-01-11T07:46:42;99475.47;;;-8.34;100.00
70445;BME280;57902;49.638;11.070;2024-01-11T07:49:19;99474.22;;;-8.00;100.00
70445;BME280;57902;49.638;11.070;2024-01-11T07:51:47;99478.94;;;-7.78;100.00
70445;BME280;57902;49.638;11.070;2024-01-11T07:54:13;99475.78;;;-7.76;100.00
70445;BME280;57902;49.638;11.070;2024-01-11T07:56:39;99473.75;;;-7.54;100.00
70445;BME280;57902;49.638;11.070;2024-01-11T07:59:06;99480.31;;;-7.28;100.00
70445;BME280;57902;49.638;11.070;2024-01-11T08:01:33;99479.75;;;-6.96;100.00
70445;BME280;57902;49.638;11.070;2024-01-11T08:04:02;99479.22;;;-6.62;100.00
70445;BME280;57902;49.638;11.070;2024-01-11T08:06:29;99475.50;;;-6.39;96.37
70445;BME280;57902;49.638;11.070;2024-01-11T08:08:56;99478.97;;;-6.07;93.74
70445;BME280;57902;49.638;11.070;2024-01-11T08:11:23;99479.91;;;-5.73;93.20
70445;BME280;57902;49.638;11.070;2024-01-11T08:13:49;99478.09;;;-5.76;94.80
70445;BME280;57902;49.638;11.070;2024-01-11T08:16:16;99466.59;;;-5.87;95.64
70445;BME280;57902;49.638;11.070;2024-01-11T08:18:44;99471.09;;;-5.82;95.43
70445;BME280;57902;49.638;11.070;2024-01-11T08:21:12;99458.88;;;-5.44;94.94
70445;BME280;57902;49.638;11.070;2024-01-11T08:23:42;99460.31;;;-5.16;93.18
70445;BME280;57902;49.638;11.070;2024-01-11T08:26:14;99456.69;;;-4.72;92.48
70445;BME280;57902;49.638;11.070;2024-01-11T08:28:42;99455.09;;;-4.53;87.17
70445;BME280;57902;49.638;11.070;2024-01-11T08:31:08;99446.59;;;-4.55;87.45
70445;BME280;57902;49.638;11.070;2024-01-11T08:33:35;99458.19;;;-4.07;87.70
70445;BME280;57902;49.638;11.070;2024-01-11T08:36:05;99443.56;;;-4.66;89.75
70445;BME280;57902;49.638;11.070;2024-01-11T08:38:33;99431.25;;;-4.60;91.72
70445;BME280;57902;49.638;11.070;2024-01-11T08:41:00;99428.09;;;-4.03;88.41
70445;BME280;57902;49.638;11.070;2024-01-11T08:43:27;99421.22;;;-3.32;85.59
70445;BME280;57902;49.638;11.070;2024-01-11T08:45:53;99422.97;;;-3.49;83.46
70445;BME280;57902;49.638;11.070;2024-01-11T08:48:20;99429.38;;;-2.79;81.50
70445;BME280;57902;49.638;11.070;2024-01-11T08:50:47;99420.41;;;-2.31;79.09
70445;BME280;57902;49.638;11.070;2024-01-11T08:53:14;99434.84;;;-2.07;74.90
70445;BME280;57902;49.638;11.070;2024-01-11T08:55:42;99453.56;;;-2.44;74.85
70445;BME280;57902;49.638;11.070;2024-01-11T08:58:11;99438.19;;;-2.08;73.38
70445;BME280;57902;49.638;11.070;2024-01-11T09:00:38;99445.94;;;-2.24;73.37
70445;BME280;57902;49.638;11.070;2024-01-11T09:03:05;99441.50;;;-2.30;73.81
70445;BME280;57902;49.638;11.070;2024-01-11T09:05:31;99438.69;;;-1.94;72.61
70445;BME280;57902;49.638;11.070;2024-01-11T09:07:58;99438.50;;;-1.78;71.95
70445;BME280;57902;49.638;11.070;2024-01-11T09:10:25;99439.25;;;-1.80;71.72
70445;BME280;57902;49.638;11.070;2024-01-11T09:12:52;99440.75;;;-1.63;71.89
70445;BME280;57902;49.638;11.070;2024-01-11T09:15:19;99445.00;;;-1.62;71.13
70445;BME280;57902;49.638;11.070;2024-01-11T09:17:45;99458.84;;;-1.74;72.46
70445;BME280;57902;49.638;11.070;2024-01-11T09:20:12;99476.13;;;-2.06;74.93
70445;BME280;57902;49.638;11.070;2024-01-11T09:22:40;99472.38;;;-2.37;75.54
70445;BME280;57902;49.638;11.070;2024-01-11T09:25:07;99494.06;;;-2.21;76.31
70445;BME280;57902;49.638;11.070;2024-01-11T09:27:34;99502.28;;;-2.47;76.73
70445;BME280;57902;49.638;11.070;2024-01-11T09:30:01;99492.16;;;-2.87;78.92
70445;BME280;57902;49.638;11.070;2024-01-11T09:32:28;99484.75;;;-2.83;79.53
70445;BME280;57902;49.638;11.070;2024-01-11T09:34:57;99475.25;;;-2.49;76.46
70445;BME280;57902;49.638;11.070;2024-01-11T09:37:24;99455.22;;;-2.85;76.99
70445;BME280;57902;49.638;11.070;2024-01-11T09:39:50;99448.56;;;-3.03;77.94
70445;BME280;57902;49.638;11.070;2024-01-11T09:42:18;99442.38;;;-3.29;80.25
70445;BME280;57902;49.638;11.070;2024-01-11T09:44:46;99429.56;;;-3.34;80.84
70445;BME280;57902;49.638;11.070;2024-01-11T09:47:15;99437.06;;;-3.35;82.30
70445;BME280;57902;49.638;11.070;2024-01-11T09:49:45;99433.19;;;-3.28;82.22
70445;BME280;57902;49.638;11.070;2024-01-11T09:52:19;99443.53;;;-3.22;83.78
70445;BME280;57902;49.638;11.070;2024-01-11T09:54:46;99453.47;;;-3.25;82.97
70445;BME280;57902;49.638;11.070;2024-01-11T09:57:15;99470.94;;;-3.30;83.55
70445;BME280;57902;49.638;11.070;2024-01-11T09:59:43;99464.69;;;-3.19;82.32
70445;BME280;57902;49.638;11.070;2024-01-11T10:02:11;99483.69;;;-3.27;82.82
70445;BME280;57902;49.638;11.070;2024-01-11T10:04:38;99475.41;;;-3.05;82.54
70445;BME280;57902;49.638;11.070;2024-01-11T10:07:05;99482.19;;;-2.84;82.29
70445;BME280;57902;49.638;11.070;2024-01-11T10:09:33;99476.78;;;-2.72;81.73
70445;BME280;57902;49.638;11.070;2024-01-11T10:11:59;99489.69;;;-2.86;82.08
70445;BME280;57902;49.638;11.070;2024-01-11T10:14:26;99482.13;;;-2.86;83.90
70445;BME280;57902;49.638;11.070;2024-01-11T10:16:54;99479.47;;;-2.89;83.18
70445;BME280;57902;49.638;11.070;2024-01-11T10:19:20;99478.56;;;-2.89;82.48
70445;BME280;57902;49.638;11.070;2024-01-11T10:21:48;99469.81;;;-2.58;81.27
70445;BME280;57902;49.638;11.070;2024-01-11T10:24:19;99448.19;;;-2.52;82.25
70445;BME280;57902;49.638;11.070;2024-01-11T10:26:47;99450.47;;;-2.37;80.01
70445;BME280;57902;49.638;11.070;2024-01-11T10:29:14;99443.88;;;-2.54;80.03
70445;BME280;57902;49.638;11.070;2024-01-11T10:31:41;99456.91;;;-2.45;80.37
70445;BME280;57902;49.638;11.070;2024-01-11T10:34:07;99467.25;;;-2.39;80.51
70445;BME280;57902;49.638;11.070;2024-01-11T10:36:35;99439.09;;;-2.48;81.04
70445;BME280;57902;49.638;11.070;2024-01-11T10:39:03;99440.03;;;-2.46;81.87
70445;BME280;57902;49.638;11.070;2024-01-11T10:41:38;99439.28;;;-2.22;80.52
70445;BME280;57902;49.638;11.070;2024-01-11T10:44:16;99432.50;;;-2.23;80.60
70445;BME280;57902;49.638;11.070;2024-01-11T10:46:45;99432.63;;;-2.20;79.78
70445;BME280;57902;49.638;11.070;2024-01-11T10:49:17;99436.25;;;-2.14;78.55
70445;BME280;57902;49.638;11.070;2024-01-11T10:51:49;99437.31;;;-2.08;77.58
70445;BME280;57902;49.638;11.070;2024-01-11T10:54:20;99430.78;;;-2.03;77.44
70445;BME280;57902;49.638;11.070;2024-01-11T10:56:47;99426.69;;;-2.00;77.77
70445;BME280;57902;49.638;11.070;2024-01-11T10:59:16;99430.84;;;-2.02;76.63
70445;BME280;57902;49.638;11.070;2024-01-11T11:01:45;99418.88;;;-2.06;77.20
70445;BME280;57902;49.638;11.070;2024-01-11T11:04:13;99423.88;;;-2.07;77.22
70445;BME280;57902;49.638;11.070;2024-01-11T11:06:42;99415.97;;;-1.94;76.04
70445;BME280;57902;49.638;11.070;2024-01-11T11:09:10;99414.25;;;-1.95;76.82
70445;BME280;57902;49.638;11.070;2024-01-11T11:11:39;99408.94;;;-2.01;76.86
70445;BME280;57902;49.638;11.070;2024-01-11T11:14:06;99409.09;;;-1.98;77.77
70445;BME280;57902;49.638;11.070;2024-01-11T11:16:34;99411.63;;;-1.76;76.72
70445;BME280;57902;49.638;11.070;2024-01-11T11:19:00;99405.31;;;-1.64;75.89
70445;BME280;57902;49.638;11.070;2024-01-11T11:21:27;99399.03;;;-1.74;76.79
70445;BME280;57902;49.638;11.070;2024-01-11T11:23:55;99391.31;;;-1.54;76.36
70445;BME280;57902;49.638;11.070;2024-01-11T11:26:25;99394.72;;;-1.54;76.13
70445;BME280;57902;49.638;11.070;2024-01-11T11:28:52;99391.56;;;-1.48;76.44
70445;BME280;57902;49.638;11.070;2024-01-11T11:31:39;99410.06;;;-1.49;76.07
70445;BME280;57902;49.638;11.070;2024-01-11T11:34:13;99408.56;;;-1.44;76.12
70445;BME280;57902;49.638;11.070;2024-01-11T11:36:40;99412.44;;;-1.30;75.18
70445;BME280;57902;49.638;11.070;2024-01-11T11:39:10;99414.72;;;-1.37;75.88
70445;BME280;57902;49.638;11.070;2024-01-11T11:41:41;99422.13;;;-1.65;76.68
70445;BME280;57902;49.638;11.070;2024-01-11T11:44:12;99430.41;;;-1.46;76.91
70445;BME280;57902;49.638;11.070;2024-01-11T11:46:40;99420.59;;;-1.61;76.49
70445;BME280;57902;49.638;11.070;2024-01-11T11:49:07;99405.38;;;-1.63;76.83
70445;BME280;57902;49.638;11.070;2024-01-11T11:51:34;99401.78;;;-1.45;76.53
70445;BME280;57902;49.638;11.070;2024-01-11T11:54:01;99407.91;;;-1.38;77.44
70445;BME280;57902;49.638;11.070;2024-01-11T11:56:29;99401.38;;;-1.33;76.96
70445;BME280;57902;49.638;11.070;2024-01-11T11:58:57;99397.91;;;-1.35;76.58
70445;BME280;57902;49.638;11.070;2024-01-11T12:01:23;99400.47;;;-1.34;77.48
70445;BME280;57902;49.638;11.070;2024-01-11T12:03:52;99394.75;;;-1.30;76.88
70445;BME280;57902;49.638;11.070;2024-01-11T12:06:20;99397.25;;;-1.30;76.20
70445;BME280;57902;49.638;11.070;2024-01-11T12:08:52;99394.00;;;-1.27;76.15
70445;BME280;57902;49.638;11.070;2024-01-11T12:11:20;99386.13;;;-1.35;74.32
70445;BME280;57902;49.638;11.070;2024-01-11T12:13:48;99376.75;;;-1.13;73.92
70445;BME280;57902;49.638;11.070;2024-01-11T12:16:15;99373.06;;;-1.23;73.40
70445;BME280;57902;49.638;11.070;2024-01-11T12:18:42;99375.94;;;-1.12;73.93
70445;BME280;57902;49.638;11.070;2024-01-11T12:21:09;99365.38;;;-1.26;73.89
70445;BME280;57902;49.638;11.070;2024-01-11T12:23:38;99378.31;;;-1.17;73.82
70445;BME280;57902;49.638;11.070;2024-01-11T12:26:06;99379.72;;;-1.25;74.78
70445;BME280;57902;49.638;11.070;2024-01-11T12:28:39;99373.22;;;-1.18;74.90
70445;BME280;57902;49.638;11.070;2024-01-11T12:31:05;99375.34;;;-1.05;74.43
70445;BME280;57902;49.638;11.070;2024-01-11T12:33:32;99367.66;;;-1.08;74.56
70445;BME280;57902;49.638;11.070;2024-01-11T12:36:03;99357.81;;;-1.00;74.25
70445;BME280;57902;49.638;11.070;2024-01-11T12:38:30;99351.47;;;-0.88;74.33
70445;BME280;57902;49.638;11.070;2024-01-11T12:40:57;99355.81;;;-1.09;74.85
70445;BME280;57902;49.638;11.070;2024-01-11T12:43:24;99357.81;;;-1.00;74.53